sensor_id;sensor_type;location;lat;lon;timestamp;temperature;humidity
8178;DHT22;4130;48.740;9.132;2022-08-03T00:01:40;16.90;99.90
8178;DHT22;4130;48.740;9.132;2022-08-03T00:04:08;16.90;99.90
8178;DHT22;4130;48.740;9.132;2022-08-03T00:06:35;16.90;99.90
8178;DHT22;4130;48.740;9.132;2022-08-03T00:09:03;16.80;99.90
8178;DHT22;4130;48.740;9.132;2022-08-03T00:11:30;16.80;99.90
8178;DHT22;4130;48.740;9.132;2022-08-03T00:13:57;16.80;99.90
8178;DHT22;4130;48.740;9.132;2022-08-03T00:16:26;16.70;99.90
8178;DHT22;4130;48.740;9.132;2022-08-03T00:18:53;16.80;99.90
8178;DHT22;4130;48.740;9.132;2022-08-03T00:21:20;16.80;99.90
8178;DHT22;4130;48.740;9.132;2022-08-03T00:23:47;16.70;99.90
8178;DHT22;4130;48.740;9.132;2022-08-03T00:26:14;16.80;99.90
8178;DHT22;4130;48.740;9.132;2022-08-03T00:28:41;16.80;99.90
8178;DHT22;4130;48.740;9.132;2022-08-03T00:31:08;16.80;99.90
8178;DHT22;4130;48.740;9.132;2022-08-03T00:33:36;16.80;99.90
8178;DHT22;4130;48.740;9.132;2022-08-03T00:36:03;16.80;99.90
8178;DHT22;4130;48.740;9.132;2022-08-03T00:38:29;16.80;99.90
8178;DHT22;4130;48.740;9.132;2022-08-03T00:40:56;16.80;99.90
8178;DHT22;4130;48.740;9.132;2022-08-03T00:43:24;16.70;99.90
8178;DHT22;4130;48.740;9.132;2022-08-03T00:45:52;16.70;99.90
8178;DHT22;4130;48.740;9.132;2022-08-03T00:48:19;16.70;99.90
8178;DHT22;4130;48.740;9.132;2022-08-03T00:50:48;16.70;99.90
8178;DHT22;4130;48.740;9.132;2022-08-03T00:53:14;16.70;99.90
8178;DHT22;4130;48.740;9.132;2022-08-03T00:55:42;16.70;99.90
8178;DHT22;4130;48.740;9.132;2022-08-03T00:58:09;16.70;99.90
8178;DHT22;4130;48.740;9.132;2022-08-03T01:00:37;16.60;99.90
8178;DHT22;4130;48.740;9.132;2022-08-03T01:03:05;16.60;99.90
8178;DHT22;4130;48.740;9.132;2022-08-03T01:05:37;16.60;99.90
8178;DHT22;4130;48.740;9.132;2022-08-03T01:08:12;16.60;99.90
8178;DHT22;4130;48.740;9.132;2022-08-03T01:10:48;16.60;99.90
8178;DHT22;4130;48.740;9.132;2022-08-03T01:13:23;17.00;99.90
8178;DHT22;4130;48.740;9.132;2022-08-03T01:15:58;16.50;99.90
8178;DHT22;4130;48.740;9.132;2022-08-03T01:18:32;16.50;99.90
8178;DHT22;4130;48.740;9.132;2022-08-03T01:21:05;16.60;99.90
8178;DHT22;4130;48.740;9.132;2022-08-03T01:23:51;16.50;99.90
8178;DHT22;4130;48.740;9.132;2022-08-03T01:26:36;16.40;99.90
8178;DHT22;4130;48.740;9.132;2022-08-03T01:29:16;16.30;99.90
8178;DHT22;4130;48.740;9.132;2022-08-03T01:31:53;16.40;99.90
8178;DHT22;4130;48.740;9.132;2022-08-03T01:34:27;16.30;99.90
8178;DHT22;4130;48.740;9.132;2022-08-03T01:36:55;16.30;99.90
8178;DHT22;4130;48.740;9.132;2022-08-03T01:39:23;16.30;99.90
8178;DHT22;4130;48.740;9.132;2022-08-03T01:41:58;16.30;99.90
8178;DHT22;4130;48.740;9.132;2022-08-03T01:44:33;16.30;99.90
8178;DHT22;4130;48.740;9.132;2022-08-03T01:47:03;16.20;99.90
8178;DHT22;4130;48.740;9.132;2022-08-03T01:49:33;16.20;99.90
8178;DHT22;4130;48.740;9.132;2022-08-03T01:52:03;16.20;99.90
8178;DHT22;4130;48.740;9.132;2022-08-03T01:54:31;16.20;99.90
8178;DHT22;4130;48.740;9.132;2022-08-03T01:57:01;16.20;99.90
8178;DHT22;4130;48.740;9.132;2022-08-03T01:59:29;16.10;99.90
8178;DHT22;4130;48.740;9.132;2022-08-03T02:01:59;16.10;99.90
8178;DHT22;4130;48.740;9.132;2022-08-03T02:04:28;16.20;99.90
8178;DHT22;4130;48.740;9.132;2022-08-03T02:06:56;16.10;99.90
8178;DHT22;4130;48.740;9.132;2022-08-03T02:09:24;16.10;99.90
8178;DHT22;4130;48.740;9.132;2022-08-03T02:11:53;16.10;99.90
8178;DHT22;4130;48.740;9.132;2022-08-03T02:14:21;16.00;99.90
8178;DHT22;4130;48.740;9.132;2022-08-03T02:16:49;16.10;99.90
8178;DHT22;4130;48.740;9.132;2022-08-03T02:19:17;16.00;99.90
8178;DHT22;4130;48.740;9.132;2022-08-03T02:21:46;16.00;99.90
8178;DHT22;4130;48.740;9.132;2022-08-03T02:24:14;16.00;99.90
8178;DHT22;4130;48.740;9.132;2022-08-03T02:26:41;15.90;99.90
8178;DHT22;4130;48.740;9.132;2022-08-03T02:29:13;16.00;99.90
8178;DHT22;4130;48.740;9.132;2022-08-03T02:31:41;16.00;99.90
8178;DHT22;4130;48.740;9.132;2022-08-03T02:34:13;16.00;99.90
8178;DHT22;4130;48.740;9.132;2022-08-03T02:36:41;15.90;99.90
8178;DHT22;4130;48.740;9.132;2022-08-03T02:39:12;15.90;99.90
8178;DHT22;4130;48.740;9.132;2022-08-03T02:41:44;15.90;99.90
8178;DHT22;4130;48.740;9.132;2022-08-03T02:44:12;15.90;99.90
8178;DHT22;4130;48.740;9.132;2022-08-03T02:46:42;15.90;99.90
8178;DHT22;4130;48.740;9.132;2022-08-03T02:49:12;15.90;99.90
8178;DHT22;4130;48.740;9.132;2022-08-03T02:51:40;15.90;99.90
8178;DHT22;4130;48.740;9.132;2022-08-03T02:54:08;15.80;99.90
8178;DHT22;4130;48.740;9.132;2022-08-03T02:56:38;15.80;99.90
8178;DHT22;4130;48.740;9.132;2022-08-03T02:59:05;16.10;99.90
8178;DHT22;4130;48.740;9.132;2022-08-03T03:01:32;15.80;99.90
8178;DHT22;4130;48.740;9.132;2022-08-03T03:04:00;15.70;99.90
8178;DHT22;4130;48.740;9.132;2022-08-03T03:06:28;15.70;99.90
8178;DHT22;4130;48.740;9.132;2022-08-03T03:08:55;15.80;99.90
8178;DHT22;4130;48.740;9.132;2022-08-03T03:11:24;15.70;99.90
8178;DHT22;4130;48.740;9.132;2022-08-03T03:13:53;15.60;99.90
8178;DHT22;4130;48.740;9.132;2022-08-03T03:16:22;15.70;99.90
8178;DHT22;4130;48.740;9.132;2022-08-03T03:18:52;15.70;99.90
8178;DHT22;4130;48.740;9.132;2022-08-03T03:21:20;15.70;99.90
8178;DHT22;4130;48.740;9.132;2022-08-03T03:23:48;15.70;99.90
8178;DHT22;4130;48.740;9.132;2022-08-03T03:26:15;15.60;99.90
8178;DHT22;4130;48.740;9.132;2022-08-03T03:28:43;15.60;99.90
8178;DHT22;4130;48.740;9.132;2022-08-03T03:31:11;15.60;99.90
8178;DHT22;4130;48.740;9.132;2022-08-03T03:33:38;15.60;99.90
8178;DHT22;4130;48.740;9.132;2022-08-03T03:36:05;15.70;99.90
8178;DHT22;4130;48.740;9.132;2022-08-03T03:38:33;15.60;99.90
8178;DHT22;4130;48.740;9.132;2022-08-03T03:41:00;15.60;99.90
8178;DHT22;4130;48.740;9.132;2022-08-03T03:43:27;15.60;99.90
8178;DHT22;4130;48.740;9.132;2022-08-03T03:45:56;15.60;99.90
8178;DHT22;4130;48.740;9.132;2022-08-03T03:48:25;15.60;99.90
8178;DHT22;4130;48.740;9.132;2022-08-03T03:50:52;15.60;99.90
8178;DHT22;4130;48.740;9.132;2022-08-03T03:53:19;15.60;99.90
8178;DHT22;4130;48.740;9.132;2022-08-03T03:55:45;15.60;99.90
8178;DHT22;4130;48.740;9.132;2022-08-03T03:58:12;15.60;99.90
8178;DHT22;4130;48.740;9.132;2022-08-03T04:00:39;15.60;99.90
8178;DHT22;4130;48.740;9.132;2022-08-03T04:03:09;15.50;99.90
8178;DHT22;4130;48.740;9.132;2022-08-03T04:05:37;15.50;99.90
8178;DHT22;4130;48.740;9.132;2022-08-03T04:08:22;15.50;99.90
8178;DHT22;4130;48.740;9.132;2022-08-03T04:11:18;15.50;99.90
8178;DHT22;4130;48.740;9.132;2022-08-03T04:13:49;15.60;99.90
8178;DHT22;4130;48.740;9.132;2022-08-03T04:16:19;15.50;99.90
8178;DHT22;4130;48.740;9.132;2022-08-03T04:18:51;15.50;99.90
8178;DHT22;4130;48.740;9.132;2022-08-03T04:21:20;15.50;99.90
8178;DHT22;4130;48.740;9.132;2022-08-03T04:23:52;15.60;99.90
8178;DHT22;4130;48.740;9.132;2022-08-03T04:26:21;15.60;99.90
8178;DHT22;4130;48.740;9.132;2022-08-03T04:28:50;15.60;99.90
8178;DHT22;4130;48.740;9.132;2022-08-03T04:31:19;16.10;99.90
8178;DHT22;4130;48.740;9.132;2022-08-03T04:33:48;15.60;99.90
8178;DHT22;4130;48.740;9.132;2022-08-03T04:36:21;15.70;99.90
8178;DHT22;4130;48.740;9.132;2022-08-03T04:38:54;15.80;99.90
8178;DHT22;4130;48.740;9.132;2022-08-03T04:41:24;15.70;99.90
8178;DHT22;4130;48.740;9.132;2022-08-03T04:43:53;15.80;99.90
8178;DHT22;4130;48.740;9.132;2022-08-03T04:46:22;15.80;99.90
8178;DHT22;4130;48.740;9.132;2022-08-03T04:48:50;15.80;99.90
8178;DHT22;4130;48.740;9.132;2022-08-03T04:51:17;15.80;99.90
8178;DHT22;4130;48.740;9.132;2022-08-03T04:53:45;15.90;99.90
8178;DHT22;4130;48.740;9.132;2022-08-03T04:56:12;15.90;99.90
8178;DHT22;4130;48.740;9.132;2022-08-03T04:58:38;16.00;99.90
8178;DHT22;4130;48.740;9.132;2022-08-03T05:01:05;15.90;99.90
8178;DHT22;4130;48.740;9.132;2022-08-03T05:03:32;16.00;99.90
8178;DHT22;4130;48.740;9.132;2022-08-03T05:05:59;16.30;99.90
8178;DHT22;4130;48.740;9.132;2022-08-03T05:08:26;16.00;99.90
8178;DHT22;4130;48.740;9.132;2022-08-03T05:10:54;16.10;99.90
8178;DHT22;4130;48.740;9.132;2022-08-03T05:13:21;16.20;99.90
8178;DHT22;4130;48.740;9.132;2022-08-03T05:15:48;16.20;99.90
8178;DHT22;4130;48.740;9.132;2022-08-03T05:18:15;16.20;99.90
8178;DHT22;4130;48.740;9.132;2022-08-03T05:20:42;16.20;99.90
8178;DHT22;4130;48.740;9.132;2022-08-03T05:23:08;16.30;99.90
8178;DHT22;4130;48.740;9.132;2022-08-03T05:25:35;16.30;99.90
8178;DHT22;4130;48.740;9.132;2022-08-03T05:28:04;16.90;99.90
8178;DHT22;4130;48.740;9.132;2022-08-03T05:30:30;16.50;99.90
8178;DHT22;4130;48.740;9.132;2022-08-03T05:32:57;16.50;99.90
8178;DHT22;4130;48.740;9.132;2022-08-03T05:35:25;16.60;99.90
8178;DHT22;4130;48.740;9.132;2022-08-03T05:37:53;16.60;99.90
8178;DHT22;4130;48.740;9.132;2022-08-03T05:40:20;16.70;99.90
8178;DHT22;4130;48.740;9.132;2022-08-03T05:42:46;16.80;99.90
8178;DHT22;4130;48.740;9.132;2022-08-03T05:45:15;17.00;99.90
8178;DHT22;4130;48.740;9.132;2022-08-03T05:47:43;17.10;99.90
8178;DHT22;4130;48.740;9.132;2022-08-03T05:50:10;17.30;99.90
8178;DHT22;4130;48.740;9.132;2022-08-03T05:52:37;17.30;99.90
8178;DHT22;4130;48.740;9.132;2022-08-03T05:55:04;17.40;99.90
8178;DHT22;4130;48.740;9.132;2022-08-03T05:57:31;17.60;99.90
8178;DHT22;4130;48.740;9.132;2022-08-03T05:59:58;17.70;99.90
8178;DHT22;4130;48.740;9.132;2022-08-03T06:02:26;17.80;99.90
8178;DHT22;4130;48.740;9.132;2022-08-03T06:04:53;18.00;99.90
8178;DHT22;4130;48.740;9.132;2022-08-03T06:07:20;18.30;99.90
8178;DHT22;4130;48.740;9.132;2022-08-03T06:09:47;18.60;99.90
8178;DHT22;4130;48.740;9.132;2022-08-03T06:12:14;18.80;99.90
8178;DHT22;4130;48.740;9.132;2022-08-03T06:14:41;19.00;99.90
8178;DHT22;4130;48.740;9.132;2022-08-03T06:17:08;19.10;99.90
8178;DHT22;4130;48.740;9.132;2022-08-03T06:19:36;19.10;99.90
8178;DHT22;4130;48.740;9.132;2022-08-03T06:22:03;19.30;99.90
8178;DHT22;4130;48.740;9.132;2022-08-03T06:24:30;19.50;99.90
8178;DHT22;4130;48.740;9.132;2022-08-03T06:26:57;19.70;99.90
8178;DHT22;4130;48.740;9.132;2022-08-03T06:29:24;19.80;99.90
8178;DHT22;4130;48.740;9.132;2022-08-03T06:31:51;20.00;99.90
8178;DHT22;4130;48.740;9.132;2022-08-03T06:34:17;20.20;99.90
8178;DHT22;4130;48.740;9.132;2022-08-03T06:36:46;20.40;99.90
8178;DHT22;4130;48.740;9.132;2022-08-03T06:39:15;20.50;99.90
8178;DHT22;4130;48.740;9.132;2022-08-03T06:41:42;20.60;99.90
8178;DHT22;4130;48.740;9.132;2022-08-03T06:44:09;20.80;99.90
8178;DHT22;4130;48.740;9.132;2022-08-03T06:46:36;21.00;99.90
8178;DHT22;4130;48.740;9.132;2022-08-03T06:49:03;21.10;99.90
8178;DHT22;4130;48.740;9.132;2022-08-03T06:51:29;21.30;99.90
8178;DHT22;4130;48.740;9.132;2022-08-03T06:53:58;21.40;99.90
8178;DHT22;4130;48.740;9.132;2022-08-03T06:56:24;21.50;99.90
8178;DHT22;4130;48.740;9.132;2022-08-03T06:58:51;21.60;99.90
8178;DHT22;4130;48.740;9.132;2022-08-03T07:01:18;21.80;99.90
8178;DHT22;4130;48.740;9.132;2022-08-03T07:03:45;21.80;99.90
8178;DHT22;4130;48.740;9.132;2022-08-03T07:06:11;22.00;99.90
8178;DHT22;4130;48.740;9.132;2022-08-03T07:08:38;22.00;99.90
8178;DHT22;4130;48.740;9.132;2022-08-03T07:11:06;22.40;99.90
8178;DHT22;4130;48.740;9.132;2022-08-03T07:13:33;22.90;99.90
8178;DHT22;4130;48.740;9.132;2022-08-03T07:16:00;23.60;99.90
8178;DHT22;4130;48.740;9.132;2022-08-03T07:18:26;24.30;99.90
8178;DHT22;4130;48.740;9.132;2022-08-03T07:20:53;25.20;99.90
8178;DHT22;4130;48.740;9.132;2022-08-03T07:23:20;25.80;99.90
8178;DHT22;4130;48.740;9.132;2022-08-03T07:25:47;26.50;99.90
8178;DHT22;4130;48.740;9.132;2022-08-03T07:28:16;27.30;99.90
8178;DHT22;4130;48.740;9.132;2022-08-03T07:30:43;28.00;99.90
8178;DHT22;4130;48.740;9.132;2022-08-03T07:33:10;28.40;99.90
8178;DHT22;4130;48.740;9.132;2022-08-03T07:35:37;28.30;99.10
8178;DHT22;4130;48.740;9.132;2022-08-03T07:38:04;27.90;98.50
8178;DHT22;4130;48.740;9.132;2022-08-03T07:40:30;27.40;98.90
8178;DHT22;4130;48.740;9.132;2022-08-03T07:42:57;27.20;99.20
8178;DHT22;4130;48.740;9.132;2022-08-03T07:45:26;26.60;98.80
8178;DHT22;4130;48.740;9.132;2022-08-03T07:47:52;26.30;98.80
8178;DHT22;4130;48.740;9.132;2022-08-03T07:50:20;26.00;99.20
8178;DHT22;4130;48.740;9.132;2022-08-03T07:52:47;25.80;99.60
8178;DHT22;4130;48.740;9.132;2022-08-03T07:55:14;26.10;99.90
8178;DHT22;4130;48.740;9.132;2022-08-03T07:57:42;26.50;99.70
8178;DHT22;4130;48.740;9.132;2022-08-03T08:00:13;26.90;98.90
8178;DHT22;4130;48.740;9.132;2022-08-03T08:02:42;27.50;98.60
8178;DHT22;4130;48.740;9.132;2022-08-03T08:05:09;28.20;98.40
8178;DHT22;4130;48.740;9.132;2022-08-03T08:07:37;28.60;97.50
8178;DHT22;4130;48.740;9.132;2022-08-03T08:10:06;29.00;97.90
8178;DHT22;4130;48.740;9.132;2022-08-03T08:12:34;29.30;95.80
8178;DHT22;4130;48.740;9.132;2022-08-03T08:15:02;29.60;95.50
8178;DHT22;4130;48.740;9.132;2022-08-03T08:17:29;29.90;96.00
8178;DHT22;4130;48.740;9.132;2022-08-03T08:19:57;30.00;96.40
8178;DHT22;4130;48.740;9.132;2022-08-03T08:22:24;30.20;93.60
8178;DHT22;4130;48.740;9.132;2022-08-03T08:24:51;30.60;93.40
8178;DHT22;4130;48.740;9.132;2022-08-03T08:27:17;30.60;93.00
8178;DHT22;4130;48.740;9.132;2022-08-03T08:29:44;30.80;93.70
8178;DHT22;4130;48.740;9.132;2022-08-03T08:32:11;31.40;92.60
8178;DHT22;4130;48.740;9.132;2022-08-03T08:34:40;31.70;92.50
8178;DHT22;4130;48.740;9.132;2022-08-03T08:37:08;32.00;91.70
8178;DHT22;4130;48.740;9.132;2022-08-03T08:39:36;32.10;91.50
8178;DHT22;4130;48.740;9.132;2022-08-03T08:42:03;32.30;91.00
8178;DHT22;4130;48.740;9.132;2022-08-03T08:44:30;31.80;90.40
8178;DHT22;4130;48.740;9.132;2022-08-03T08:47:01;31.60;91.40
8178;DHT22;4130;48.740;9.132;2022-08-03T08:49:29;31.70;90.80
8178;DHT22;4130;48.740;9.132;2022-08-03T08:51:58;31.80;91.60
8178;DHT22;4130;48.740;9.132;2022-08-03T08:54:28;32.10;90.30
8178;DHT22;4130;48.740;9.132;2022-08-03T08:56:58;32.00;89.90
8178;DHT22;4130;48.740;9.132;2022-08-03T08:59:27;32.10;90.20
8178;DHT22;4130;48.740;9.132;2022-08-03T09:01:56;32.10;89.70
8178;DHT22;4130;48.740;9.132;2022-08-03T09:04:23;32.10;88.90
8178;DHT22;4130;48.740;9.132;2022-08-03T09:06:51;32.10;87.80
8178;DHT22;4130;48.740;9.132;2022-08-03T09:09:18;31.70;88.30
8178;DHT22;4130;48.740;9.132;2022-08-03T09:11:48;31.90;89.20
8178;DHT22;4130;48.740;9.132;2022-08-03T09:14:15;32.30;88.90
8178;DHT22;4130;48.740;9.132;2022-08-03T09:16:54;32.50;87.60
8178;DHT22;4130;48.740;9.132;2022-08-03T09:19:22;33.00;86.40
8178;DHT22;4130;48.740;9.132;2022-08-03T09:22:06;33.10;85.60
8178;DHT22;4130;48.740;9.132;2022-08-03T09:24:33;32.90;86.50
8178;DHT22;4130;48.740;9.132;2022-08-03T09:27:05;33.40;86.10
8178;DHT22;4130;48.740;9.132;2022-08-03T09:29:32;33.70;84.70
8178;DHT22;4130;48.740;9.132;2022-08-03T09:32:01;33.90;85.10
8178;DHT22;4130;48.740;9.132;2022-08-03T09:34:29;34.00;84.30
8178;DHT22;4130;48.740;9.132;2022-08-03T09:36:56;34.30;82.30
8178;DHT22;4130;48.740;9.132;2022-08-03T09:39:25;34.40;84.50
8178;DHT22;4130;48.740;9.132;2022-08-03T09:42:06;34.30;83.40
8178;DHT22;4130;48.740;9.132;2022-08-03T09:44:34;34.10;79.20
8178;DHT22;4130;48.740;9.132;2022-08-03T09:47:02;34.10;80.60
8178;DHT22;4130;48.740;9.132;2022-08-03T09:49:29;33.80;80.60
8178;DHT22;4130;48.740;9.132;2022-08-03T09:52:00;33.60;81.80
8178;DHT22;4130;48.740;9.132;2022-08-03T09:54:28;34.00;81.30
8178;DHT22;4130;48.740;9.132;2022-08-03T09:56:56;34.00;80.40
8178;DHT22;4130;48.740;9.132;2022-08-03T09:59:26;34.60;81.70
8178;DHT22;4130;48.740;9.132;2022-08-03T10:01:53;34.80;81.00
8178;DHT22;4130;48.740;9.132;2022-08-03T10:04:21;35.40;79.00
8178;DHT22;4130;48.740;9.132;2022-08-03T10:07:03;35.10;78.40
8178;DHT22;4130;48.740;9.132;2022-08-03T10:09:30;35.30;78.30
8178;DHT22;4130;48.740;9.132;2022-08-03T10:11:57;35.40;78.60
8178;DHT22;4130;48.740;9.132;2022-08-03T10:14:35;36.00;80.90
8178;DHT22;4130;48.740;9.132;2022-08-03T10:17:02;35.50;76.30
8178;DHT22;4130;48.740;9.132;2022-08-03T10:19:29;35.80;78.00
8178;DHT22;4130;48.740;9.132;2022-08-03T10:22:00;35.20;75.90
8178;DHT22;4130;48.740;9.132;2022-08-03T10:24:29;34.70;77.60
8178;DHT22;4130;48.740;9.132;2022-08-03T10:27:01;34.50;77.00
8178;DHT22;4130;48.740;9.132;2022-08-03T10:29:31;34.50;77.20
8178;DHT22;4130;48.740;9.132;2022-08-03T10:32:03;34.80;79.50
8178;DHT22;4130;48.740;9.132;2022-08-03T10:34:33;35.00;76.50
8178;DHT22;4130;48.740;9.132;2022-08-03T10:37:04;35.20;77.60
8178;DHT22;4130;48.740;9.132;2022-08-03T10:39:34;35.10;75.90
8178;DHT22;4130;48.740;9.132;2022-08-03T10:42:02;35.50;76.20
8178;DHT22;4130;48.740;9.132;2022-08-03T10:44:35;34.80;74.80
8178;DHT22;4130;48.740;9.132;2022-08-03T10:47:04;34.60;77.50
8178;DHT22;4130;48.740;9.132;2022-08-03T10:49:31;34.90;75.20
8178;DHT22;4130;48.740;9.132;2022-08-03T10:51:58;35.00;75.20
8178;DHT22;4130;48.740;9.132;2022-08-03T10:54:37;34.90;75.30
8178;DHT22;4130;48.740;9.132;2022-08-03T10:57:57;35.20;75.40
8178;DHT22;4130;48.740;9.132;2022-08-03T11:00:24;34.80;75.00
8178;DHT22;4130;48.740;9.132;2022-08-03T11:03:07;34.80;74.60
8178;DHT22;4130;48.740;9.132;2022-08-03T11:05:40;35.00;74.80
8178;DHT22;4130;48.740;9.132;2022-08-03T11:08:34;35.00;76.00
8178;DHT22;4130;48.740;9.132;2022-08-03T11:11:23;35.20;75.40
8178;DHT22;4130;48.740;9.132;2022-08-03T11:13:56;35.40;76.20
8178;DHT22;4130;48.740;9.132;2022-08-03T11:16:25;35.30;75.20
8178;DHT22;4130;48.740;9.132;2022-08-03T11:18:58;35.20;75.20
8178;DHT22;4130;48.740;9.132;2022-08-03T11:21:54;35.00;75.80
8178;DHT22;4130;48.740;9.132;2022-08-03T11:27:27;34.90;74.20
8178;DHT22;4130;48.740;9.132;2022-08-03T11:29:56;34.90;75.40
8178;DHT22;4130;48.740;9.132;2022-08-03T11:32:52;35.00;75.90
8178;DHT22;4130;48.740;9.132;2022-08-03T11:35:23;35.30;75.90
8178;DHT22;4130;48.740;9.132;2022-08-03T11:38:07;35.40;75.10
8178;DHT22;4130;48.740;9.132;2022-08-03T11:40:36;35.20;74.60
8178;DHT22;4130;48.740;9.132;2022-08-03T11:43:04;35.00;72.80
8178;DHT22;4130;48.740;9.132;2022-08-03T11:45:32;34.60;74.40
8178;DHT22;4130;48.740;9.132;2022-08-03T11:48:02;34.30;75.10
8178;DHT22;4130;48.740;9.132;2022-08-03T11:50:40;34.60;76.30
8178;DHT22;4130;48.740;9.132;2022-08-03T11:53:13;34.80;76.90
8178;DHT22;4130;48.740;9.132;2022-08-03T11:55:40;35.00;75.30
8178;DHT22;4130;48.740;9.132;2022-08-03T11:58:14;35.20;75.00
8178;DHT22;4130;48.740;9.132;2022-08-03T12:00:41;35.80;73.70
8178;DHT22;4130;48.740;9.132;2022-08-03T12:03:10;35.80;73.60
8178;DHT22;4130;48.740;9.132;2022-08-03T12:05:44;35.70;74.60
8178;DHT22;4130;48.740;9.132;2022-08-03T12:08:12;35.40;73.40
8178;DHT22;4130;48.740;9.132;2022-08-03T12:10:44;34.90;74.50
8178;DHT22;4130;48.740;9.132;2022-08-03T12:13:11;34.80;75.70
8178;DHT22;4130;48.740;9.132;2022-08-03T12:15:39;35.10;74.20
8178;DHT22;4130;48.740;9.132;2022-08-03T12:18:13;35.30;74.10
8178;DHT22;4130;48.740;9.132;2022-08-03T12:20:42;35.30;73.20
8178;DHT22;4130;48.740;9.132;2022-08-03T12:23:11;35.30;74.40
8178;DHT22;4130;48.740;9.132;2022-08-03T12:25:39;35.70;74.50
8178;DHT22;4130;48.740;9.132;2022-08-03T12:28:13;36.00;75.20
8178;DHT22;4130;48.740;9.132;2022-08-03T12:30:44;35.90;73.00
8178;DHT22;4130;48.740;9.132;2022-08-03T12:33:19;35.80;73.20
8178;DHT22;4130;48.740;9.132;2022-08-03T12:35:49;35.70;72.80
8178;DHT22;4130;48.740;9.132;2022-08-03T12:38:21;35.70;72.90
8178;DHT22;4130;48.740;9.132;2022-08-03T12:40:58;35.70;72.00
8178;DHT22;4130;48.740;9.132;2022-08-03T12:43:25;35.60;73.20
8178;DHT22;4130;48.740;9.132;2022-08-03T12:46:06;35.70;72.90
8178;DHT22;4130;48.740;9.132;2022-08-03T12:48:33;35.70;74.50
8178;DHT22;4130;48.740;9.132;2022-08-03T12:51:09;35.80;73.30
8178;DHT22;4130;48.740;9.132;2022-08-03T12:53:36;36.00;73.30
8178;DHT22;4130;48.740;9.132;2022-08-03T12:56:04;36.10;72.60
8178;DHT22;4130;48.740;9.132;2022-08-03T12:58:32;36.10;73.10
8178;DHT22;4130;48.740;9.132;2022-08-03T13:01:00;36.20;72.10
8178;DHT22;4130;48.740;9.132;2022-08-03T13:03:27;36.40;72.10
8178;DHT22;4130;48.740;9.132;2022-08-03T13:05:54;36.30;72.20
8178;DHT22;4130;48.740;9.132;2022-08-03T13:08:24;36.30;70.50
8178;DHT22;4130;48.740;9.132;2022-08-03T13:10:51;36.40;70.80
8178;DHT22;4130;48.740;9.132;2022-08-03T13:16:00;36.20;70.10
8178;DHT22;4130;48.740;9.132;2022-08-03T13:18:26;36.00;70.20
8178;DHT22;4130;48.740;9.132;2022-08-03T13:20:53;35.80;70.70
8178;DHT22;4130;48.740;9.132;2022-08-03T13:23:20;35.80;70.60
8178;DHT22;4130;48.740;9.132;2022-08-03T13:25:48;35.70;71.90
8178;DHT22;4130;48.740;9.132;2022-08-03T13:28:15;35.70;71.50
8178;DHT22;4130;48.740;9.132;2022-08-03T13:30:42;35.90;72.00
8178;DHT22;4130;48.740;9.132;2022-08-03T13:33:08;35.90;71.50
8178;DHT22;4130;48.740;9.132;2022-08-03T13:35:35;36.10;70.60
8178;DHT22;4130;48.740;9.132;2022-08-03T13:38:02;36.10;70.80
8178;DHT22;4130;48.740;9.132;2022-08-03T13:40:29;36.30;71.50
8178;DHT22;4130;48.740;9.132;2022-08-03T13:42:58;36.40;69.20
8178;DHT22;4130;48.740;9.132;2022-08-03T13:45:24;36.10;70.10
8178;DHT22;4130;48.740;9.132;2022-08-03T13:47:52;35.40;70.30
8178;DHT22;4130;48.740;9.132;2022-08-03T13:50:19;35.30;71.70
8178;DHT22;4130;48.740;9.132;2022-08-03T13:52:45;34.90;71.30
8178;DHT22;4130;48.740;9.132;2022-08-03T13:55:13;34.70;71.20
8178;DHT22;4130;48.740;9.132;2022-08-03T13:57:40;34.50;71.60
8178;DHT22;4130;48.740;9.132;2022-08-03T14:00:10;34.40;72.20
8178;DHT22;4130;48.740;9.132;2022-08-03T14:02:38;34.30;71.50
8178;DHT22;4130;48.740;9.132;2022-08-03T14:05:05;34.10;71.90
8178;DHT22;4130;48.740;9.132;2022-08-03T14:07:32;33.90;72.30
8178;DHT22;4130;48.740;9.132;2022-08-03T14:09:59;33.90;72.80
8178;DHT22;4130;48.740;9.132;2022-08-03T14:12:26;34.40;72.70
8178;DHT22;4130;48.740;9.132;2022-08-03T14:14:53;35.00;71.00
8178;DHT22;4130;48.740;9.132;2022-08-03T14:17:21;35.60;70.30
8178;DHT22;4130;48.740;9.132;2022-08-03T14:19:48;36.30;70.50
8178;DHT22;4130;48.740;9.132;2022-08-03T14:22:15;36.20;69.40
8178;DHT22;4130;48.740;9.132;2022-08-03T14:24:41;35.70;70.50
8178;DHT22;4130;48.740;9.132;2022-08-03T14:27:09;34.70;69.50
8178;DHT22;4130;48.740;9.132;2022-08-03T14:29:36;34.10;71.20
8178;DHT22;4130;48.740;9.132;2022-08-03T14:32:03;33.70;71.60
8178;DHT22;4130;48.740;9.132;2022-08-03T14:34:31;33.50;72.00
8178;DHT22;4130;48.740;9.132;2022-08-03T14:36:58;33.40;73.00
8178;DHT22;4130;48.740;9.132;2022-08-03T14:39:25;33.40;72.90
8178;DHT22;4130;48.740;9.132;2022-08-03T14:41:52;33.40;72.10
8178;DHT22;4130;48.740;9.132;2022-08-03T14:44:19;33.30;72.50
8178;DHT22;4130;48.740;9.132;2022-08-03T14:46:46;33.20;72.60
8178;DHT22;4130;48.740;9.132;2022-08-03T14:49:12;33.20;72.80
8178;DHT22;4130;48.740;9.132;2022-08-03T14:51:41;33.20;73.20
8178;DHT22;4130;48.740;9.132;2022-08-03T14:54:07;33.20;74.00
8178;DHT22;4130;48.740;9.132;2022-08-03T14:56:34;33.20;73.20
8178;DHT22;4130;48.740;9.132;2022-08-03T14:59:01;33.20;72.60
8178;DHT22;4130;48.740;9.132;2022-08-03T15:01:28;33.20;73.90
8178;DHT22;4130;48.740;9.132;2022-08-03T15:03:55;33.10;72.90
8178;DHT22;4130;48.740;9.132;2022-08-03T15:06:22;33.20;72.60
8178;DHT22;4130;48.740;9.132;2022-08-03T15:08:50;33.20;73.40
8178;DHT22;4130;48.740;9.132;2022-08-03T15:11:16;33.20;73.10
8178;DHT22;4130;48.740;9.132;2022-08-03T15:13:43;33.10;72.10
8178;DHT22;4130;48.740;9.132;2022-08-03T15:16:10;32.90;72.70
8178;DHT22;4130;48.740;9.132;2022-08-03T15:18:37;33.00;73.80
8178;DHT22;4130;48.740;9.132;2022-08-03T15:21:04;33.00;73.10
8178;DHT22;4130;48.740;9.132;2022-08-03T15:23:32;33.00;72.70
8178;DHT22;4130;48.740;9.132;2022-08-03T15:26:00;33.00;73.10
8178;DHT22;4130;48.740;9.132;2022-08-03T15:28:27;32.90;73.30
8178;DHT22;4130;48.740;9.132;2022-08-03T15:30:54;32.90;73.30
8178;DHT22;4130;48.740;9.132;2022-08-03T15:33:20;32.90;73.50
8178;DHT22;4130;48.740;9.132;2022-08-03T15:35:47;32.80;72.70
8178;DHT22;4130;48.740;9.132;2022-08-03T15:38:14;32.90;73.00
8178;DHT22;4130;48.740;9.132;2022-08-03T15:40:41;32.80;73.20
8178;DHT22;4130;48.740;9.132;2022-08-03T15:43:09;32.70;73.00
8178;DHT22;4130;48.740;9.132;2022-08-03T15:45:36;32.70;73.40
8178;DHT22;4130;48.740;9.132;2022-08-03T15:48:05;32.70;72.70
8178;DHT22;4130;48.740;9.132;2022-08-03T15:50:32;32.80;72.30
8178;DHT22;4130;48.740;9.132;2022-08-03T15:52:59;32.80;73.50
8178;DHT22;4130;48.740;9.132;2022-08-03T15:55:26;32.90;73.00
8178;DHT22;4130;48.740;9.132;2022-08-03T15:57:52;32.90;73.10
8178;DHT22;4130;48.740;9.132;2022-08-03T16:00:21;32.90;72.60
8178;DHT22;4130;48.740;9.132;2022-08-03T16:02:48;32.90;72.40
8178;DHT22;4130;48.740;9.132;2022-08-03T16:05:15;32.70;72.90
8178;DHT22;4130;48.740;9.132;2022-08-03T16:07:41;32.80;73.20
8178;DHT22;4130;48.740;9.132;2022-08-03T16:10:10;32.80;72.90
8178;DHT22;4130;48.740;9.132;2022-08-03T16:12:37;32.80;73.60
8178;DHT22;4130;48.740;9.132;2022-08-03T16:15:06;33.00;73.10
8178;DHT22;4130;48.740;9.132;2022-08-03T16:17:34;33.20;72.10
8178;DHT22;4130;48.740;9.132;2022-08-03T16:20:01;33.30;72.20